createdAt,value
2019-03-02T00:01:37.464Z,5.47
2019-03-02T00:04:10.147Z,4.73
2019-03-02T00:06:38.736Z,4.40
2019-03-02T00:09:08.659Z,5.00
2019-03-02T00:11:38.368Z,4.07
2019-03-02T00:14:08.039Z,4.67
2019-03-02T00:16:39.789Z,4.90
2019-03-02T00:19:09.185Z,4.90
2019-03-02T00:21:38.867Z,4.67
2019-03-02T00:24:08.392Z,4.40
2019-03-02T00:26:38.180Z,4.70
2019-03-02T00:29:11.011Z,4.07
2019-03-02T00:31:39.138Z,4.37
2019-03-02T00:34:08.769Z,4.13
2019-03-02T00:36:38.548Z,5.17
2019-03-02T00:39:08.157Z,4.80
2019-03-02T00:41:38.703Z,4.63
2019-03-02T00:44:09.140Z,4.10
2019-03-02T00:46:38.912Z,3.73
2019-03-02T00:49:08.615Z,4.60
2019-03-02T00:51:38.228Z,4.53
2019-03-02T00:54:11.415Z,5.10
2019-03-02T00:56:39.891Z,4.03
2019-03-02T00:59:10.592Z,3.50
2019-03-02T01:01:40.162Z,4.10
2019-03-02T01:04:09.793Z,5.27
2019-03-02T01:06:39.425Z,3.90
2019-03-02T01:09:11.751Z,4.23
2019-03-02T01:11:40.372Z,4.60
2019-03-02T01:14:10.028Z,3.20
2019-03-02T01:16:39.630Z,5.63
2019-03-02T01:19:09.279Z,3.10
2019-03-02T01:21:41.276Z,4.30
2019-03-02T01:24:10.345Z,3.93
2019-03-02T01:26:39.692Z,4.03
2019-03-02T01:29:09.348Z,3.70
2019-03-02T01:31:40.732Z,5.10
2019-03-02T01:34:10.274Z,4.00
2019-03-02T01:36:39.877Z,3.50
2019-03-02T01:39:09.471Z,3.43
2019-03-02T01:41:39.094Z,3.67
2019-03-02T01:44:08.719Z,3.53
2019-03-02T01:46:40.917Z,3.60
2019-03-02T01:49:09.650Z,3.90
2019-03-02T01:51:39.334Z,3.97
2019-03-02T01:54:08.972Z,3.70
2019-03-02T01:56:41.340Z,3.03
2019-03-02T01:59:10.023Z,3.57
2019-03-02T02:01:39.675Z,3.23
2019-03-02T02:04:09.282Z,5.10
2019-03-02T02:06:39.805Z,3.93
2019-03-02T02:09:10.296Z,4.07
2019-03-02T02:11:39.920Z,3.57
2019-03-02T02:14:09.511Z,3.10
2019-03-02T02:16:41.797Z,3.07
2019-03-02T02:19:10.552Z,3.00
2019-03-02T02:21:40.227Z,3.47
2019-03-02T02:24:09.984Z,2.87
2019-03-02T02:26:39.637Z,3.83
2019-03-02T02:29:09.590Z,4.00
2019-03-02T02:31:44.290Z,3.63
2019-03-02T02:34:10.689Z,3.30
2019-03-02T02:36:40.351Z,3.10
2019-03-02T02:39:10.101Z,4.63
2019-03-02T02:41:39.721Z,4.30
2019-03-02T02:44:09.426Z,3.20
2019-03-02T02:46:39.052Z,3.23
2019-03-02T02:49:10.163Z,3.90
2019-03-02T02:51:44.545Z,2.80
2019-03-02T02:54:10.834Z,3.90
2019-03-02T02:56:40.167Z,3.13
2019-03-02T02:59:09.616Z,3.30
2019-03-02T03:01:39.000Z,4.80
2019-03-02T03:04:08.386Z,4.87
2019-03-02T03:06:39.403Z,4.53
2019-03-02T03:09:21.039Z,3.50
2019-03-02T03:11:50.445Z,4.00
2019-03-02T03:14:21.413Z,4.67
2019-03-02T03:16:54.212Z,4.13
2019-03-02T03:19:26.095Z,3.77
2019-03-02T03:21:53.094Z,5.00
2019-03-02T03:24:22.513Z,4.20
2019-03-02T03:26:51.990Z,4.07
2019-03-02T03:29:21.393Z,3.10
2019-03-02T03:31:50.733Z,4.07
2019-03-02T03:34:28.780Z,4.47
2019-03-02T03:36:51.214Z,3.50
2019-03-02T03:39:20.651Z,4.20
2019-03-02T03:41:50.034Z,5.20
2019-03-02T03:44:25.723Z,4.33
2019-03-02T03:46:50.565Z,4.13
2019-03-02T03:49:19.988Z,3.83
2019-03-02T03:51:49.355Z,3.70
2019-03-02T03:54:18.758Z,3.40
2019-03-02T03:56:48.152Z,4.13
2019-03-02T03:59:19.162Z,4.60
2019-03-02T04:01:52.260Z,4.27
2019-03-02T04:04:20.176Z,4.63
2019-03-02T04:06:49.597Z,5.10
2019-03-02T04:09:18.999Z,4.27
2019-03-02T04:11:48.372Z,5.70
2019-03-02T04:14:19.059Z,5.20
2019-03-02T04:16:48.911Z,4.43
2019-03-02T04:19:33.936Z,4.07
2019-03-02T04:22:06.243Z,5.37
2019-03-02T04:24:39.851Z,5.77
2019-03-02T04:27:06.409Z,5.17
2019-03-02T04:29:35.813Z,5.77
2019-03-02T04:32:05.199Z,6.13
2019-03-02T04:34:34.588Z,6.27
2019-03-02T04:37:03.941Z,5.27
2019-03-02T04:39:33.366Z,6.57
2019-03-02T04:42:02.712Z,5.67
2019-03-02T04:44:32.119Z,4.43
2019-03-02T04:47:01.504Z,5.10
2019-03-02T04:49:30.892Z,5.13
2019-03-02T04:52:00.287Z,6.27
2019-03-02T04:54:29.658Z,6.37
2019-03-02T04:56:59.843Z,9.83
2019-03-02T04:59:29.817Z,5.10
2019-03-02T05:01:59.203Z,5.70
2019-03-02T05:04:28.887Z,5.63
2019-03-02T05:06:59.723Z,5.00
2019-03-02T05:09:29.125Z,5.10
2019-03-02T05:11:58.608Z,5.33
2019-03-02T05:14:28.030Z,5.30
2019-03-02T05:16:57.431Z,5.03
2019-03-02T05:19:29.162Z,7.73
2019-03-02T05:21:57.942Z,5.87
2019-03-02T05:24:27.288Z,6.13
2019-03-02T05:26:56.905Z,4.67
2019-03-02T05:29:27.046Z,6.97
2019-03-02T05:31:56.456Z,6.60
2019-03-02T05:34:25.913Z,4.80
2019-03-02T05:36:55.416Z,6.40
2019-03-02T05:39:24.768Z,4.90
2019-03-02T05:41:54.211Z,5.97
2019-03-02T05:44:23.605Z,7.00
2019-03-02T05:46:53.011Z,7.13
2019-03-02T05:49:22.382Z,5.90
2019-03-02T05:51:51.796Z,5.90
2019-03-02T05:54:21.156Z,6.33
2019-03-02T05:56:50.600Z,5.97
2019-03-02T05:59:22.913Z,6.03
2019-03-02T06:01:51.182Z,7.97
2019-03-02T06:04:22.074Z,6.27
2019-03-02T06:06:54.185Z,5.80
2019-03-02T06:09:22.808Z,4.40
2019-03-02T06:11:52.215Z,5.70
2019-03-02T06:14:21.570Z,7.00
2019-03-02T06:16:53.741Z,6.77
2019-03-02T06:19:23.544Z,6.67
2019-03-02T06:21:53.193Z,6.50
2019-03-02T06:24:22.563Z,7.27
2019-03-02T06:26:51.954Z,6.63
2019-03-02T06:29:21.288Z,7.30
2019-03-02T06:31:53.798Z,6.10
2019-03-02T06:34:21.805Z,5.83
2019-03-02T06:36:51.176Z,7.30
2019-03-02T06:39:20.602Z,7.90
2019-03-02T06:41:49.969Z,6.93
2019-03-02T06:44:19.449Z,6.93
2019-03-02T06:46:48.822Z,7.77
2019-03-02T06:49:19.890Z,7.60
2019-03-02T06:51:49.421Z,7.67
2019-03-02T06:54:18.859Z,8.03
2019-03-02T06:56:57.258Z,8.40
2019-03-02T06:59:19.359Z,9.50
2019-03-02T07:01:48.739Z,8.60
2019-03-02T07:04:21.859Z,6.60
2019-03-02T07:06:49.218Z,8.23
2019-03-02T07:09:18.618Z,8.90
2019-03-02T07:11:47.989Z,8.70
2019-03-02T07:14:17.405Z,9.00
2019-03-02T07:16:46.765Z,8.10
2019-03-02T07:19:29.185Z,10.37
2019-03-02T07:21:58.563Z,9.40
2019-03-02T07:24:29.385Z,9.83
2019-03-02T07:26:59.084Z,8.20
2019-03-02T07:29:28.482Z,9.37
2019-03-02T07:31:57.890Z,8.10
2019-03-02T07:34:27.296Z,7.10
2019-03-02T07:36:56.655Z,7.23
2019-03-02T07:39:28.776Z,8.20
2019-03-02T07:41:57.888Z,8.63
2019-03-02T07:44:27.656Z,8.37
2019-03-02T07:46:57.024Z,8.27
2019-03-02T07:49:26.430Z,8.07
2019-03-02T07:51:55.794Z,9.10
2019-03-02T07:54:25.198Z,7.60
2019-03-02T07:56:54.564Z,9.20
2019-03-02T07:59:26.575Z,8.90
2019-03-02T08:01:55.094Z,10.30
2019-03-02T08:04:24.505Z,8.90
2019-03-02T08:06:53.898Z,9.83
2019-03-02T08:09:25.806Z,10.13
2019-03-02T08:11:54.418Z,11.20
2019-03-02T08:14:23.786Z,11.07
2019-03-02T08:16:53.235Z,11.17
2019-03-02T08:19:22.667Z,12.20
2019-03-02T08:21:52.071Z,11.07
2019-03-02T08:24:21.436Z,11.00
2019-03-02T08:26:50.858Z,12.40
2019-03-02T08:29:20.935Z,11.20
2019-03-02T08:31:51.363Z,11.00
2019-03-02T08:34:20.719Z,11.57
2019-03-02T08:36:53.842Z,11.70
2019-03-02T08:39:21.425Z,14.17
2019-03-02T08:41:52.954Z,15.30
2019-03-02T08:44:22.009Z,14.57
2019-03-02T08:46:51.420Z,12.50
2019-03-02T08:49:20.813Z,14.10
2019-03-02T08:51:50.229Z,13.73
2019-03-02T08:54:21.538Z,11.13
2019-03-02T08:56:50.814Z,12.87
2019-03-02T08:59:20.156Z,12.27
2019-03-02T09:01:51.227Z,12.20
2019-03-02T09:04:20.680Z,11.30
2019-03-02T09:06:50.077Z,12.97
2019-03-02T09:09:19.919Z,12.47
2019-03-02T09:11:49.431Z,10.43
2019-03-02T09:14:18.791Z,11.67
2019-03-02T09:16:48.208Z,11.73
2019-03-02T09:19:20.892Z,12.77
2019-03-02T09:21:49.096Z,12.13
2019-03-02T09:24:19.621Z,10.63
2019-03-02T09:26:49.259Z,11.47
2019-03-02T09:29:18.655Z,10.20
2019-03-02T09:31:48.071Z,12.43
2019-03-02T09:34:17.676Z,12.73
2019-03-02T09:36:47.101Z,12.20
2019-03-02T09:39:16.503Z,12.80
2019-03-02T09:41:45.864Z,10.93
2019-03-02T09:44:15.281Z,12.53
2019-03-02T09:46:44.672Z,9.93
2019-03-02T09:49:14.113Z,10.73
2019-03-02T09:51:47.982Z,11.47
2019-03-02T09:54:16.013Z,11.37
2019-03-02T09:56:45.371Z,11.10
2019-03-02T09:59:14.770Z,11.80
2019-03-02T10:01:44.118Z,11.30
2019-03-02T10:04:13.579Z,12.43
2019-03-02T10:06:42.943Z,13.03
2019-03-02T10:09:12.361Z,10.90
2019-03-02T10:11:41.720Z,11.50
2019-03-02T10:14:26.579Z,10.30
2019-03-02T10:16:56.242Z,11.00
2019-03-02T10:19:28.954Z,9.40
2019-03-02T10:21:56.770Z,12.40
2019-03-02T10:24:26.199Z,11.00
2019-03-02T10:26:55.574Z,9.37
2019-03-02T10:29:25.006Z,12.57
2019-03-02T10:31:54.369Z,10.80
2019-03-02T10:34:23.821Z,10.33
2019-03-02T10:36:53.182Z,11.43
2019-03-02T10:39:22.573Z,11.50
2019-03-02T10:41:52.985Z,10.27
2019-03-02T10:44:23.077Z,10.87
2019-03-02T10:46:52.462Z,9.00
2019-03-02T10:49:21.880Z,14.67
2019-03-02T10:51:51.248Z,10.60
2019-03-02T10:54:20.678Z,10.53
2019-03-02T10:56:50.032Z,11.77
2019-03-02T11:31:26.087Z,12.30
2019-03-02T11:34:18.237Z,8.90
2019-03-02T11:37:08.922Z,9.33
2019-03-02T11:40:09.510Z,11.70
2019-03-02T11:42:53.866Z,10.27
2019-03-02T11:45:54.465Z,10.87
2019-03-02T11:48:31.548Z,9.63
2019-03-02T11:51:11.141Z,9.60
2019-03-02T11:54:17.467Z,9.50
2019-03-02T11:57:04.324Z,10.03
2019-03-02T11:59:59.769Z,10.83
2019-03-02T12:02:42.272Z,9.60
2019-03-02T12:05:42.844Z,11.47
2019-03-02T12:08:43.070Z,9.40
2019-03-02T12:11:42.891Z,8.60
2019-03-02T12:14:48.897Z,9.80
2019-03-02T12:17:41.033Z,10.13
2019-03-02T12:20:45.303Z,9.57
2019-03-02T12:23:34.146Z,9.90
2019-03-02T12:26:13.123Z,12.50
2019-03-02T12:28:59.975Z,9.40
2019-03-02T12:31:47.233Z,8.93
2019-03-02T12:34:22.346Z,9.07
2019-03-02T12:37:00.004Z,8.23
2019-03-02T12:39:50.368Z,7.33
2019-03-02T12:42:50.750Z,8.50
2019-03-02T12:45:29.973Z,8.20
2019-03-02T12:48:21.937Z,8.60
2019-03-02T12:51:10.153Z,8.57
2019-03-02T12:54:06.103Z,8.73
2019-03-02T12:56:54.492Z,9.37
2019-03-02T12:59:41.745Z,8.57
2019-03-02T13:02:28.626Z,8.40
2019-03-02T13:05:06.950Z,8.00
2019-03-02T13:07:54.831Z,7.53
2019-03-02T13:11:01.416Z,7.70
2019-03-02T13:13:58.819Z,6.40
2019-03-02T13:16:50.082Z,5.60
2019-03-02T13:19:40.238Z,6.33
2019-03-02T13:22:43.869Z,4.93
2019-03-02T13:25:50.485Z,5.97
2019-03-02T13:28:25.125Z,5.40
2019-03-02T13:31:28.740Z,4.33
2019-03-02T13:34:15.340Z,3.77
2019-03-02T13:37:21.706Z,3.43
2019-03-02T13:40:16.057Z,3.67
2019-03-02T13:43:04.746Z,3.80
2019-03-02T13:45:55.073Z,2.47
2019-03-02T13:48:42.297Z,3.60
2019-03-02T13:51:42.523Z,4.37
2019-03-02T13:54:17.607Z,2.90
2019-03-02T13:57:05.903Z,2.60
2019-03-02T13:59:54.343Z,3.63
2019-03-02T14:02:41.451Z,3.00
2019-03-02T14:05:29.747Z,2.83
2019-03-02T14:08:24.108Z,2.33
2019-03-02T14:11:12.337Z,3.17
2019-03-02T14:14:03.636Z,3.17
2019-03-02T14:16:55.311Z,2.57
2019-03-02T14:19:42.008Z,3.13
2019-03-02T14:22:30.080Z,3.10
2019-03-02T14:25:19.085Z,3.13
2019-03-02T14:28:04.320Z,3.13
2019-03-02T14:30:42.868Z,3.17
2019-03-02T14:33:18.296Z,2.40
2019-03-02T14:35:58.529Z,2.00
2019-03-02T14:38:40.418Z,3.30
2019-03-02T14:41:28.701Z,2.00
2019-03-02T14:44:05.050Z,2.23
2019-03-02T14:46:50.380Z,2.33
2019-03-02T14:49:43.131Z,3.50
2019-03-02T14:52:33.316Z,3.10
2019-03-02T14:55:20.480Z,2.50
2019-03-02T14:58:00.217Z,2.10
2019-03-02T15:00:47.644Z,1.87
2019-03-02T15:03:35.867Z,2.07
2019-03-02T15:06:22.811Z,2.87
2019-03-02T15:09:08.813Z,2.50
2019-03-02T15:12:07.569Z,2.40
2019-03-02T15:14:45.966Z,2.13
2019-03-02T15:17:40.282Z,2.60
2019-03-02T15:20:40.790Z,2.50
2019-03-02T15:23:22.732Z,3.57
2019-03-02T15:26:08.816Z,2.20
2019-03-02T15:28:43.629Z,2.87
2019-03-02T15:31:30.977Z,1.53
2019-03-02T15:34:19.410Z,2.47
2019-03-02T15:37:08.027Z,2.43
2019-03-02T15:40:06.682Z,2.23
2019-03-02T15:42:49.524Z,1.40
2019-03-02T15:45:29.648Z,2.50
2019-03-02T15:48:16.699Z,2.60
2019-03-02T15:51:14.195Z,3.90
2019-03-02T15:54:08.210Z,2.70
2019-03-02T15:57:02.459Z,1.53
2019-03-02T15:59:55.655Z,3.10
2019-03-02T16:02:43.883Z,3.10
2019-03-02T16:05:22.090Z,3.20
2019-03-02T16:08:10.643Z,3.27
2019-03-02T16:10:58.977Z,2.97
2019-03-02T16:13:59.988Z,2.77
2019-03-02T16:16:47.916Z,2.67
2019-03-02T16:19:36.191Z,2.50
2019-03-02T16:22:13.961Z,2.87
2019-03-02T16:24:52.762Z,3.20
2019-03-02T16:27:43.793Z,2.23
2019-03-02T16:30:23.112Z,2.47
2019-03-02T16:33:05.720Z,2.47
2019-03-02T16:36:06.122Z,2.33
2019-03-02T16:38:54.407Z,1.83
2019-03-02T16:41:41.286Z,2.57
2019-03-02T16:44:30.336Z,2.67
2019-03-02T16:47:33.904Z,2.80
2019-03-02T16:50:18.281Z,1.27
2019-03-02T16:53:16.054Z,1.80
2019-03-02T16:56:08.285Z,0.97
2019-03-02T16:59:11.651Z,1.80
2019-03-02T17:02:09.110Z,1.97
2019-03-02T17:04:51.454Z,2.33
2019-03-02T17:07:31.364Z,1.80
2019-03-02T17:10:11.467Z,1.63
2019-03-02T17:12:58.989Z,1.90
2019-03-02T17:15:48.596Z,2.47
2019-03-02T17:18:26.940Z,2.20
2019-03-02T17:21:21.696Z,1.83
2019-03-02T17:24:13.032Z,1.97
2019-03-02T17:26:49.388Z,1.93
2019-03-02T17:29:31.735Z,1.70
2019-03-02T17:32:14.008Z,2.17
2019-03-02T17:35:21.164Z,2.13
2019-03-02T17:38:13.174Z,1.90
2019-03-02T17:41:07.401Z,1.80
2019-03-02T17:43:57.242Z,1.70
2019-03-02T17:46:51.786Z,2.10
2019-03-02T17:49:33.722Z,2.30
2019-03-02T17:52:20.965Z,2.57
2019-03-02T17:55:07.923Z,1.50
2019-03-02T17:58:08.535Z,1.60
2019-03-02T18:00:56.971Z,2.13
2019-03-02T18:03:51.903Z,1.57
2019-03-02T18:06:29.885Z,1.50
2019-03-02T18:09:24.062Z,1.73
2019-03-02T18:12:17.296Z,2.43
2019-03-02T18:15:11.394Z,1.70
2019-03-02T18:18:00.887Z,2.37
2019-03-02T18:20:31.349Z,1.43
2019-03-02T18:23:00.825Z,1.30
2019-03-02T18:25:30.220Z,1.20
2019-03-02T18:27:59.670Z,1.70
2019-03-02T18:30:29.166Z,1.87
2019-03-02T18:33:16.047Z,1.80
2019-03-02T18:35:45.522Z,1.47
2019-03-02T18:38:14.872Z,1.60
2019-03-02T18:40:44.317Z,1.63
2019-03-02T18:43:13.700Z,1.50
2019-03-02T18:45:43.135Z,1.87
2019-03-02T18:48:30.071Z,2.03
2019-03-02T18:51:08.073Z,1.30
2019-03-02T18:53:38.133Z,2.20
2019-03-02T18:56:07.535Z,1.43
2019-03-02T18:58:36.912Z,1.60
2019-03-02T19:01:06.305Z,1.57
2019-03-02T19:03:35.674Z,1.13
2019-03-02T19:06:05.102Z,1.17
2019-03-02T19:08:34.428Z,2.50
2019-03-02T19:11:03.884Z,2.20
2019-03-02T19:13:33.221Z,1.20
2019-03-02T19:16:02.706Z,16.43
2019-03-02T19:18:32.144Z,2.27
2019-03-02T19:21:01.545Z,3.70
2019-03-02T19:23:30.902Z,12.83
2019-03-02T19:26:00.369Z,6.70
2019-03-02T19:28:29.703Z,4.57
2019-03-02T19:30:59.123Z,7.80
2019-03-02T19:33:28.494Z,13.00
2019-03-02T19:35:57.895Z,3.43
2019-03-02T19:38:27.250Z,2.00
2019-03-02T19:40:56.696Z,2.83
2019-03-02T19:43:26.114Z,2.03
2019-03-02T19:45:55.524Z,2.07
2019-03-02T19:48:24.863Z,3.10
2019-03-02T19:50:54.300Z,1.93
2019-03-02T19:53:23.961Z,2.50
2019-03-02T19:55:53.453Z,2.50
2019-03-02T19:58:22.801Z,2.07
2019-03-02T20:00:52.444Z,1.13
2019-03-02T20:03:21.948Z,1.13
2019-03-02T20:05:51.553Z,1.63
2019-03-02T20:08:21.185Z,2.03
2019-03-02T20:10:50.952Z,1.33
2019-03-02T20:13:20.520Z,1.70
2019-03-02T20:15:51.096Z,1.70
2019-03-02T20:18:21.181Z,1.57
2019-03-02T20:20:50.682Z,0.70
2019-03-02T20:23:21.613Z,0.97
2019-03-02T20:25:51.290Z,1.27
2019-03-02T20:28:20.965Z,1.13
2019-03-02T20:30:51.057Z,1.10
2019-03-02T20:33:21.978Z,0.83
2019-03-02T20:35:52.673Z,1.27
2019-03-02T20:38:22.516Z,1.10
2019-03-02T20:40:53.120Z,0.90
2019-03-02T20:43:23.599Z,1.30
2019-03-02T20:45:54.463Z,1.10
2019-03-02T20:48:24.565Z,1.03
2019-03-02T20:50:54.685Z,1.13
2019-03-02T20:53:24.369Z,1.23
2019-03-02T20:55:55.374Z,1.27
2019-03-02T20:58:25.643Z,1.77
2019-03-02T21:00:55.394Z,1.10
2019-03-02T21:03:24.984Z,1.57
2019-03-02T21:05:54.931Z,1.37
2019-03-02T21:08:24.534Z,1.20
2019-03-02T21:10:54.314Z,1.20
2019-03-02T21:13:23.950Z,1.37
2019-03-02T21:15:53.727Z,1.10
2019-03-02T21:18:23.389Z,1.90
2019-03-02T21:20:53.236Z,1.30
2019-03-02T21:23:23.021Z,1.60
2019-03-02T21:25:52.664Z,1.40
2019-03-02T21:28:23.057Z,1.40
2019-03-02T21:30:53.084Z,1.43
2019-03-02T21:33:23.304Z,1.37
2019-03-02T21:35:53.318Z,1.40
2019-03-02T21:38:23.161Z,1.40
2019-03-02T21:40:53.437Z,1.37
2019-03-02T21:43:23.357Z,1.90
2019-03-02T21:45:54.223Z,1.73
2019-03-02T21:48:24.334Z,2.00
2019-03-02T21:50:54.553Z,1.67
2019-03-02T21:53:25.693Z,1.53
2019-03-02T21:55:55.812Z,1.80
2019-03-02T21:58:25.935Z,1.63
2019-03-02T22:00:57.071Z,1.83
2019-03-02T22:03:27.298Z,1.90
2019-03-02T22:05:57.314Z,2.63
2019-03-02T22:08:27.439Z,2.23
2019-03-02T22:11:01.769Z,2.17
2019-03-02T22:13:31.468Z,2.80
2019-03-02T22:16:01.222Z,2.00
2019-03-02T22:18:30.819Z,2.93
2019-03-02T22:21:01.188Z,3.70
2019-03-02T22:23:30.714Z,2.77
2019-03-02T22:26:00.338Z,2.57
2019-03-02T22:28:30.717Z,2.27
2019-03-02T22:31:00.874Z,2.10
2019-03-02T22:33:31.028Z,2.20
2019-03-02T22:36:01.087Z,2.67
2019-03-02T22:38:31.305Z,2.27
2019-03-02T22:41:01.449Z,3.40
2019-03-02T22:43:31.095Z,2.90
2019-03-02T22:46:00.723Z,2.03
2019-03-02T22:48:30.376Z,2.60
2019-03-02T22:50:59.962Z,2.20
2019-03-02T22:53:29.587Z,2.80
2019-03-02T22:55:59.263Z,2.37
2019-03-02T22:58:33.619Z,2.40
2019-03-02T23:01:39.931Z,3.03
2019-03-02T23:04:09.528Z,3.60
2019-03-02T23:06:39.176Z,2.80
2019-03-02T23:09:11.500Z,2.87
2019-03-02T23:11:41.178Z,3.03
2019-03-02T23:14:10.825Z,3.30
2019-03-02T23:16:40.486Z,3.23
2019-03-02T23:19:10.137Z,2.83
2019-03-02T23:21:39.810Z,3.70
2019-03-02T23:24:10.472Z,3.70
2019-03-02T23:26:40.140Z,4.00
2019-03-02T23:29:09.688Z,3.37
2019-03-02T23:31:39.452Z,2.70
2019-03-02T23:34:08.989Z,3.23
2019-03-02T23:36:38.676Z,3.40
2019-03-02T23:39:08.332Z,3.43
2019-03-02T23:41:37.993Z,3.47
2019-03-02T23:44:07.643Z,2.57
2019-03-02T23:46:37.321Z,2.80
2019-03-02T23:49:07.086Z,3.33
2019-03-02T23:51:36.818Z,3.23
2019-03-02T23:54:06.387Z,3.23
2019-03-02T23:56:36.058Z,3.40
2019-03-02T23:59:05.690Z,3.73
